createdAt,value
2018-06-27T00:04:37.765Z,17.70
2018-06-27T00:09:42.572Z,17.60
2018-06-27T00:14:47.712Z,17.50
2018-06-27T00:19:52.472Z,17.40
2018-06-27T00:24:57.440Z,17.40
2018-06-27T00:30:02.260Z,17.30
2018-06-27T00:35:07.000Z,17.30
2018-06-27T00:40:11.770Z,17.20
2018-06-27T00:45:16.559Z,17.00
2018-06-27T00:50:21.838Z,17.00
2018-06-27T00:55:26.451Z,16.90
2018-06-27T01:00:31.501Z,16.80
2018-06-27T01:05:36.731Z,16.70
2018-06-27T01:10:41.627Z,16.60
2018-06-27T01:15:46.443Z,16.60
2018-06-27T01:20:51.115Z,16.50
2018-06-27T01:25:55.812Z,16.40
2018-06-27T01:31:00.455Z,16.40
2018-06-27T01:36:05.526Z,16.30
2018-06-27T01:41:10.303Z,16.30
2018-06-27T01:46:15.316Z,16.20
2018-06-27T01:51:20.180Z,16.10
2018-06-27T01:56:25.228Z,16.10
2018-06-27T02:01:30.665Z,16.10
2018-06-27T02:06:35.848Z,16.10
2018-06-27T02:11:41.584Z,16.10
2018-06-27T02:21:50.960Z,16.00
2018-06-27T02:26:55.686Z,15.90
2018-06-27T02:32:00.669Z,15.90
2018-06-27T02:37:05.389Z,15.70
2018-06-27T02:42:10.352Z,15.70
2018-06-27T02:47:15.079Z,15.80
2018-06-27T02:57:23.932Z,15.90
2018-06-27T03:02:28.861Z,15.90
2018-06-27T03:07:33.561Z,15.90
2018-06-27T03:12:38.543Z,15.90
2018-06-27T03:17:46.398Z,16.00
2018-06-27T03:22:51.233Z,16.10
2018-06-27T03:27:55.952Z,16.00
2018-06-27T03:33:00.685Z,15.90
2018-06-27T03:38:06.578Z,15.90
2018-06-27T03:43:11.544Z,15.90
2018-06-27T03:48:16.475Z,16.10
2018-06-27T03:53:21.226Z,16.20
2018-06-27T03:58:26.167Z,16.40
2018-06-27T04:03:31.094Z,16.60
2018-06-27T04:08:35.973Z,16.60
2018-06-27T04:13:40.832Z,16.70
2018-06-27T04:18:46.060Z,16.90
2018-06-27T04:23:50.971Z,17.10
2018-06-27T04:28:55.903Z,17.20
2018-06-27T04:34:00.971Z,17.40
2018-06-27T04:39:08.264Z,17.60
2018-06-27T04:44:13.115Z,17.70
2018-06-27T04:49:17.881Z,17.60
2018-06-27T04:54:22.701Z,17.60
2018-06-27T04:59:27.437Z,17.40
2018-06-27T05:04:32.282Z,17.40
2018-06-27T05:09:36.911Z,17.50
2018-06-27T05:14:41.580Z,17.60
2018-06-27T05:19:46.284Z,17.50
2018-06-27T05:24:51.367Z,17.40
2018-06-27T05:29:56.290Z,17.60
2018-06-27T05:35:01.046Z,17.70
2018-06-27T05:40:05.883Z,17.70
2018-06-27T05:45:10.720Z,17.80
2018-06-27T05:50:15.487Z,17.80
2018-06-27T05:55:20.329Z,18.10
2018-06-27T06:00:25.346Z,18.20
2018-06-27T06:05:30.023Z,18.40
2018-06-27T06:10:34.623Z,18.40
2018-06-27T06:15:39.443Z,18.60
2018-06-27T06:20:44.353Z,18.90
2018-06-27T06:25:49.046Z,18.90
2018-06-27T06:30:53.820Z,19.10
2018-06-27T06:35:58.689Z,19.10
2018-06-27T06:41:03.617Z,19.00
2018-06-27T06:46:08.417Z,19.10
2018-06-27T06:51:13.171Z,19.30
2018-06-27T06:56:18.660Z,19.40
2018-06-27T07:01:23.484Z,19.30
2018-06-27T07:06:28.233Z,19.30
2018-06-27T07:11:32.991Z,19.70
2018-06-27T07:16:38.034Z,20.10
2018-06-27T07:21:42.842Z,20.20
2018-06-27T07:26:47.725Z,20.30
2018-06-27T07:31:52.646Z,20.80
2018-06-27T07:36:57.586Z,21.10
2018-06-27T07:42:02.712Z,20.80
2018-06-27T07:47:07.554Z,20.70
2018-06-27T07:52:12.755Z,20.70
2018-06-27T07:57:17.393Z,20.90
2018-06-27T08:02:22.132Z,21.20
2018-06-27T08:07:33.441Z,21.60
2018-06-27T08:12:38.962Z,21.50
2018-06-27T08:17:43.733Z,21.80
2018-06-27T08:22:48.493Z,21.80
2018-06-27T08:27:53.058Z,21.50
2018-06-27T08:34:04.707Z,21.60
2018-06-27T08:39:10.590Z,21.90
2018-06-27T08:44:16.645Z,22.40
2018-06-27T08:49:21.381Z,22.50
2018-06-27T08:54:26.225Z,22.40
2018-06-27T08:59:31.182Z,22.50
2018-06-27T09:04:35.786Z,22.70
2018-06-27T09:09:40.779Z,22.70
2018-06-27T09:14:46.291Z,22.90
2018-06-27T09:19:51.173Z,23.40
2018-06-27T09:24:56.116Z,23.40
2018-06-27T09:30:01.433Z,23.40
2018-06-27T09:35:06.440Z,23.40
2018-06-27T09:40:11.218Z,23.60
2018-06-27T09:45:15.986Z,23.90
2018-06-27T09:50:20.877Z,24.00
2018-06-27T09:55:25.688Z,24.20
2018-06-27T10:00:35.594Z,24.40
2018-06-27T10:05:40.389Z,24.80
2018-06-27T10:10:45.089Z,25.00
2018-06-27T10:15:49.987Z,25.10
2018-06-27T10:20:54.681Z,25.40
2018-06-27T10:25:59.671Z,25.10
2018-06-27T10:31:04.375Z,25.50
2018-06-27T10:36:09.118Z,25.80
2018-06-27T10:41:13.968Z,25.10
2018-06-27T10:46:18.924Z,24.80
2018-06-27T10:51:23.774Z,25.10
2018-06-27T10:56:28.835Z,25.50
2018-06-27T11:01:33.678Z,26.20
2018-06-27T11:06:38.327Z,26.50
2018-06-27T11:11:43.151Z,26.50
2018-06-27T11:16:48.709Z,27.00
2018-06-27T11:21:54.055Z,26.90
2018-06-27T11:26:58.961Z,27.10
2018-06-27T11:32:03.878Z,27.10
2018-06-27T11:37:09.003Z,27.30
2018-06-27T11:42:14.018Z,27.60
2018-06-27T11:47:18.777Z,28.10
2018-06-27T11:52:23.498Z,27.70
2018-06-27T11:57:28.388Z,27.30
2018-06-27T12:02:33.078Z,26.90
2018-06-27T12:07:37.870Z,27.40
2018-06-27T12:12:42.565Z,27.40
2018-06-27T12:17:47.299Z,28.10
2018-06-27T12:22:51.991Z,28.60
2018-06-27T12:33:00.814Z,31.20
2018-06-27T12:38:05.596Z,32.80
2018-06-27T12:43:10.383Z,33.30
2018-06-27T12:48:15.106Z,30.80
2018-06-27T12:53:20.122Z,29.40
2018-06-27T12:58:25.056Z,28.60
2018-06-27T13:03:29.918Z,27.70
2018-06-27T13:08:34.746Z,26.80
2018-06-27T13:13:39.557Z,26.10
2018-06-27T13:18:44.325Z,25.60
2018-06-27T13:23:49.270Z,25.50
2018-06-27T13:28:54.107Z,25.50
2018-06-27T13:33:58.808Z,25.30
2018-06-27T13:39:04.033Z,25.10
2018-06-27T13:44:08.968Z,24.80
2018-06-27T13:49:13.998Z,24.30
2018-06-27T13:54:18.940Z,24.10
2018-06-27T13:59:24.010Z,24.40
2018-06-27T14:04:28.951Z,25.00
2018-06-27T14:09:34.121Z,25.00
2018-06-27T14:14:39.107Z,25.30
2018-06-27T14:19:44.050Z,26.00
2018-06-27T14:24:49.009Z,26.70
2018-06-27T14:29:54.097Z,30.30
2018-06-27T14:34:59.019Z,30.80
2018-06-27T14:40:04.025Z,31.90
2018-06-27T14:45:08.999Z,31.20
2018-06-27T14:50:14.265Z,29.90
2018-06-27T14:55:19.985Z,29.10
2018-06-27T15:00:25.136Z,27.80
2018-06-27T15:05:30.284Z,29.30
2018-06-27T15:10:35.121Z,30.70
2018-06-27T15:15:40.287Z,31.60
2018-06-27T15:20:45.280Z,33.70
2018-06-27T15:25:50.292Z,32.30
2018-06-27T15:30:55.214Z,31.40
2018-06-27T15:36:00.343Z,34.60
2018-06-27T15:41:07.928Z,36.30
2018-06-27T15:46:13.049Z,36.40
2018-06-27T15:51:18.167Z,37.00
2018-06-27T15:56:23.372Z,36.20
2018-06-27T16:01:28.532Z,36.20
2018-06-27T16:06:33.515Z,31.70
2018-06-27T16:11:39.130Z,27.90
2018-06-27T16:16:44.442Z,25.70
2018-06-27T16:21:49.844Z,24.80
2018-06-27T16:26:54.866Z,24.50
2018-06-27T16:31:59.753Z,25.60
2018-06-27T16:37:05.038Z,30.50
2018-06-27T16:42:10.097Z,32.00
2018-06-27T16:47:15.370Z,33.90
2018-06-27T16:52:20.332Z,35.00
2018-06-27T16:57:25.356Z,35.40
2018-06-27T17:02:30.212Z,35.60
2018-06-27T17:07:35.259Z,32.10
2018-06-27T17:12:41.271Z,31.70
2018-06-27T17:17:46.487Z,31.40
2018-06-27T17:22:51.248Z,28.50
2018-06-27T17:27:56.169Z,26.30
2018-06-27T17:33:01.143Z,25.30
2018-06-27T17:38:06.199Z,25.00
2018-06-27T17:43:11.035Z,24.60
2018-06-27T17:48:15.932Z,24.40
2018-06-27T17:53:20.996Z,24.30
2018-06-27T17:58:25.735Z,24.00
2018-06-27T18:03:30.577Z,23.90
2018-06-27T18:08:35.278Z,23.70
2018-06-27T18:13:40.750Z,23.40
2018-06-27T18:18:45.680Z,23.10
2018-06-27T18:23:50.641Z,22.90
2018-06-27T18:28:55.761Z,22.60
2018-06-27T18:34:00.478Z,22.60
2018-06-27T18:39:08.371Z,22.40
2018-06-27T18:44:13.247Z,22.30
2018-06-27T18:49:18.268Z,22.20
2018-06-27T18:54:23.342Z,22.20
2018-06-27T18:59:28.390Z,22.10
2018-06-27T19:04:33.331Z,21.90
2018-06-27T19:09:38.257Z,21.70
2018-06-27T19:14:43.206Z,21.50
2018-06-27T19:19:48.263Z,21.30
2018-06-27T19:24:53.086Z,21.10
2018-06-27T19:29:58.366Z,20.90
2018-06-27T19:35:03.250Z,20.60
2018-06-27T19:40:08.239Z,20.50
2018-06-27T19:45:13.130Z,20.40
2018-06-27T19:50:17.916Z,20.30
2018-06-27T19:55:23.020Z,20.10
2018-06-27T20:00:27.806Z,20.00
2018-06-27T20:05:32.741Z,19.90
2018-06-27T20:10:37.839Z,19.80
2018-06-27T20:15:42.604Z,19.70
2018-06-27T20:20:49.503Z,19.70
2018-06-27T20:25:54.646Z,19.60
2018-06-27T20:30:59.426Z,19.60
2018-06-27T20:36:04.244Z,19.50
2018-06-27T20:41:09.685Z,19.40
2018-06-27T20:46:15.277Z,19.30
2018-06-27T20:51:20.898Z,19.20
2018-06-27T20:56:26.275Z,19.00
2018-06-27T21:01:31.548Z,18.90
2018-06-27T21:06:36.932Z,18.80
2018-06-27T21:11:43.217Z,18.80
2018-06-27T21:16:48.757Z,18.70
2018-06-27T21:26:58.294Z,18.70
2018-06-27T21:32:03.697Z,18.70
2018-06-27T21:37:08.503Z,18.50
2018-06-27T21:42:14.991Z,18.40
2018-06-27T21:47:20.011Z,18.30
2018-06-27T21:52:25.345Z,18.20
2018-06-27T21:57:30.351Z,18.10
2018-06-27T22:02:35.329Z,17.90
2018-06-27T22:07:41.070Z,17.80
2018-06-27T22:12:46.006Z,17.60
2018-06-27T22:17:51.452Z,17.50
2018-06-27T22:22:56.646Z,17.40
2018-06-27T22:28:02.049Z,17.30
2018-06-27T22:33:07.670Z,17.20
2018-06-27T22:38:12.842Z,17.20
2018-06-27T22:43:18.167Z,17.10
2018-06-27T22:48:22.827Z,16.90
2018-06-27T22:53:27.777Z,16.90
2018-06-27T22:58:32.701Z,16.80
2018-06-27T23:03:37.292Z,16.70
2018-06-27T23:08:42.217Z,16.60
2018-06-27T23:13:47.135Z,16.60
2018-06-27T23:18:52.150Z,16.60
2018-06-27T23:23:56.910Z,16.50
2018-06-27T23:29:01.516Z,16.50
2018-06-27T23:34:06.188Z,16.50
2018-06-27T23:39:12.887Z,16.40
2018-06-27T23:44:17.687Z,16.40
